createdAt,value
2023-02-21T00:00:36.821Z,99.99
2023-02-21T00:01:36.776Z,99.99
2023-02-21T00:02:36.903Z,99.99
2023-02-21T00:03:36.777Z,99.99
2023-02-21T00:04:36.808Z,99.99
2023-02-21T00:05:36.818Z,99.99
2023-02-21T00:06:36.802Z,99.99
2023-02-21T00:07:36.763Z,99.99
2023-02-21T00:08:36.764Z,99.99
2023-02-21T00:09:36.799Z,99.99
2023-02-21T00:10:36.782Z,99.99
2023-02-21T00:11:36.813Z,99.99
2023-02-21T00:12:36.802Z,99.99
2023-02-21T00:13:36.826Z,99.99
2023-02-21T00:14:36.792Z,99.99
2023-02-21T00:15:36.781Z,99.99
2023-02-21T00:16:36.888Z,99.99
2023-02-21T00:17:36.808Z,99.99
2023-02-21T00:18:36.780Z,99.99
2023-02-21T00:19:36.808Z,99.99
2023-02-21T00:20:36.777Z,99.99
2023-02-21T00:21:36.794Z,99.99
2023-02-21T00:22:36.794Z,99.99
2023-02-21T00:23:36.799Z,99.99
2023-02-21T00:24:36.843Z,99.99
2023-02-21T00:25:36.793Z,99.99
2023-02-21T00:26:36.822Z,99.99
2023-02-21T00:27:36.837Z,99.99
2023-02-21T00:28:36.868Z,99.99
2023-02-21T00:29:36.824Z,99.99
2023-02-21T00:30:37.071Z,99.99
2023-02-21T00:31:39.650Z,99.99
2023-02-21T00:32:37.135Z,99.99
2023-02-21T00:33:36.977Z,99.99
2023-02-21T00:34:36.840Z,99.99
2023-02-21T00:35:36.834Z,99.99
2023-02-21T00:36:36.824Z,99.99
2023-02-21T00:37:36.811Z,99.99
2023-02-21T00:38:36.808Z,99.99
2023-02-21T00:39:36.849Z,99.99
2023-02-21T00:40:36.816Z,99.99
2023-02-21T00:41:36.821Z,99.99
2023-02-21T00:42:39.906Z,99.99
2023-02-21T00:43:39.004Z,99.99
2023-02-21T00:44:36.871Z,99.99
2023-02-21T00:45:36.813Z,99.99
2023-02-21T00:46:36.827Z,99.99
2023-02-21T00:47:36.888Z,99.99
2023-02-21T00:48:36.821Z,99.99
2023-02-21T00:49:36.849Z,99.99
2023-02-21T00:50:36.849Z,99.99
2023-02-21T00:51:36.855Z,99.99
2023-02-21T00:52:36.887Z,99.99
2023-02-21T00:53:39.632Z,99.99
2023-02-21T00:54:36.868Z,99.99
2023-02-21T00:55:36.832Z,99.99
2023-02-21T00:56:36.853Z,99.99
2023-02-21T00:57:36.871Z,99.99
2023-02-21T00:58:36.864Z,99.99
2023-02-21T00:59:36.877Z,99.99
2023-02-21T01:00:36.877Z,99.99
2023-02-21T01:01:37.037Z,99.99
2023-02-21T01:02:36.867Z,99.99
2023-02-21T01:03:36.862Z,99.99
2023-02-21T01:04:40.121Z,99.99
2023-02-21T01:05:36.866Z,99.99
2023-02-21T01:06:36.872Z,99.99
2023-02-21T01:07:36.864Z,99.99
2023-02-21T01:08:36.865Z,99.99
2023-02-21T01:09:36.894Z,99.99
2023-02-21T01:10:36.926Z,99.99
2023-02-21T01:11:36.885Z,99.99
2023-02-21T01:12:36.872Z,99.99
2023-02-21T01:13:36.868Z,99.99
2023-02-21T01:14:36.977Z,99.99
2023-02-21T01:15:40.066Z,99.99
2023-02-21T01:16:36.915Z,99.99
2023-02-21T01:17:36.881Z,99.99
2023-02-21T01:18:36.876Z,99.99
2023-02-21T01:19:36.958Z,99.99
2023-02-21T01:20:36.958Z,99.99
2023-02-21T01:21:36.879Z,99.99
2023-02-21T01:22:36.880Z,99.99
2023-02-21T01:23:36.891Z,99.99
2023-02-21T01:24:36.917Z,99.99
2023-02-21T01:25:36.898Z,99.99
2023-02-21T01:26:39.637Z,99.99
2023-02-21T01:27:36.967Z,99.99
2023-02-21T01:28:36.953Z,99.99
2023-02-21T01:29:36.922Z,99.99
2023-02-21T01:30:37.134Z,99.99
2023-02-21T01:31:37.011Z,99.99
2023-02-21T01:32:37.046Z,99.99
2023-02-21T01:33:36.905Z,99.99
2023-02-21T01:34:38.568Z,99.99
2023-02-21T01:35:36.903Z,99.99
2023-02-21T01:36:36.912Z,99.99
2023-02-21T01:37:36.923Z,99.99
2023-02-21T01:38:36.906Z,99.99
2023-02-21T01:39:36.950Z,99.99
2023-02-21T01:40:36.945Z,99.99
2023-02-21T01:41:36.937Z,99.99
2023-02-21T01:42:36.954Z,99.99
2023-02-21T01:43:36.953Z,99.99
2023-02-21T01:44:36.929Z,99.99
2023-02-21T01:45:36.926Z,99.99
2023-02-21T01:46:36.983Z,99.99
2023-02-21T01:47:36.911Z,99.99
2023-02-21T01:48:37.017Z,99.99
2023-02-21T01:49:36.994Z,99.99
2023-02-21T01:50:36.928Z,99.99
2023-02-21T01:51:36.960Z,99.99
2023-02-21T01:52:36.941Z,99.99
2023-02-21T01:53:39.999Z,99.99
2023-02-21T01:54:36.957Z,99.99
2023-02-21T01:55:36.928Z,99.99
2023-02-21T01:56:36.952Z,99.99
2023-02-21T01:57:36.937Z,99.99
2023-02-21T01:58:37.113Z,99.99
2023-02-21T01:59:37.008Z,99.99
2023-02-21T02:00:36.945Z,99.99
2023-02-21T02:01:37.112Z,99.99
2023-02-21T02:02:36.978Z,99.99
2023-02-21T02:03:37.027Z,99.99
2023-02-21T02:04:38.940Z,99.99
2023-02-21T02:05:36.957Z,99.99
2023-02-21T02:06:37.112Z,99.99
2023-02-21T02:07:36.939Z,99.99
2023-02-21T02:08:36.948Z,99.99
2023-02-21T02:09:37.002Z,99.99
2023-02-21T02:10:36.961Z,99.99
2023-02-21T02:11:36.947Z,99.99
2023-02-21T02:12:36.973Z,99.99
2023-02-21T02:13:36.942Z,99.99
2023-02-21T02:14:36.963Z,99.99
2023-02-21T02:15:39.867Z,99.99
2023-02-21T02:16:36.957Z,99.99
2023-02-21T02:17:37.056Z,99.99
2023-02-21T02:18:36.985Z,99.99
2023-02-21T02:19:37.125Z,99.99
2023-02-21T02:20:37.000Z,99.99
2023-02-21T02:21:36.967Z,99.99
2023-02-21T02:22:36.988Z,99.99
2023-02-21T02:23:37.001Z,99.99
2023-02-21T02:24:36.996Z,99.99
2023-02-21T02:25:37.142Z,99.99
2023-02-21T02:26:36.986Z,99.99
2023-02-21T02:27:37.089Z,99.99
2023-02-21T02:28:36.969Z,99.99
2023-02-21T02:29:36.983Z,99.99
2023-02-21T02:30:37.082Z,99.99
2023-02-21T02:31:37.316Z,99.99
2023-02-21T02:32:36.994Z,99.99
2023-02-21T02:33:36.973Z,99.99
2023-02-21T02:34:37.116Z,99.99
2023-02-21T02:35:36.978Z,99.99
2023-02-21T02:36:37.024Z,99.99
2023-02-21T02:37:36.984Z,99.99
2023-02-21T02:38:37.022Z,99.99
2023-02-21T02:39:36.992Z,99.99
2023-02-21T02:40:36.985Z,99.99
2023-02-21T02:41:36.988Z,99.99
2023-02-21T02:42:37.013Z,99.99
2023-02-21T02:43:36.988Z,99.99
2023-02-21T02:44:37.080Z,99.99
2023-02-21T02:45:36.991Z,99.99
2023-02-21T02:46:37.159Z,99.99
2023-02-21T02:47:37.001Z,99.99
2023-02-21T02:48:38.024Z,99.99
2023-02-21T02:49:37.007Z,99.99
2023-02-21T02:50:37.015Z,99.99
2023-02-21T02:51:37.005Z,99.99
2023-02-21T02:52:37.039Z,99.99
2023-02-21T02:53:36.984Z,99.99
2023-02-21T02:54:37.069Z,99.99
2023-02-21T02:55:37.015Z,99.99
2023-02-21T02:56:37.056Z,99.99
2023-02-21T02:57:37.011Z,99.99
2023-02-21T02:58:40.094Z,99.99
2023-02-21T02:59:37.028Z,99.99
2023-02-21T03:00:36.991Z,99.99
2023-02-21T03:01:37.125Z,99.99
2023-02-21T03:02:36.990Z,99.99
2023-02-21T03:03:37.462Z,99.99
2023-02-21T03:04:37.040Z,99.99
2023-02-21T03:05:37.024Z,99.99
2023-02-21T03:06:37.041Z,99.99
2023-02-21T03:07:38.950Z,99.99
2023-02-21T03:08:37.050Z,99.99
2023-02-21T03:09:37.682Z,99.99
2023-02-21T03:10:37.018Z,99.99
2023-02-21T03:11:37.017Z,99.99
2023-02-21T03:12:37.009Z,99.99
2023-02-21T03:13:37.015Z,99.99
2023-02-21T03:14:37.052Z,99.99
2023-02-21T03:15:37.025Z,99.99
2023-02-21T03:16:37.044Z,99.99
2023-02-21T03:17:37.011Z,99.99
2023-02-21T03:18:37.029Z,99.99
2023-02-21T03:19:37.022Z,99.99
2023-02-21T03:20:40.049Z,99.99
2023-02-21T03:21:37.125Z,99.99
2023-02-21T03:22:37.064Z,99.99
2023-02-21T03:23:37.052Z,99.99
2023-02-21T03:24:37.050Z,99.99
2023-02-21T03:25:37.112Z,99.99
2023-02-21T03:26:37.053Z,99.99
2023-02-21T03:27:37.045Z,99.99
2023-02-21T03:28:37.076Z,99.99
2023-02-21T03:29:37.062Z,99.99
2023-02-21T03:30:37.160Z,99.99
2023-02-21T03:31:40.057Z,99.99
2023-02-21T03:32:37.058Z,99.99
2023-02-21T03:33:37.039Z,99.99
2023-02-21T03:34:37.059Z,99.99
2023-02-21T03:35:37.062Z,99.99
2023-02-21T03:36:37.062Z,99.99
2023-02-21T03:37:37.079Z,99.99
2023-02-21T03:38:37.116Z,99.99
2023-02-21T03:39:37.070Z,99.99
2023-02-21T03:40:37.107Z,99.99
2023-02-21T03:41:37.166Z,99.99
2023-02-21T03:42:39.974Z,99.99
2023-02-21T03:43:37.048Z,99.99
2023-02-21T03:44:37.065Z,99.99
2023-02-21T03:45:37.079Z,99.99
2023-02-21T03:46:39.269Z,99.99
2023-02-21T03:47:37.074Z,99.99
2023-02-21T03:48:37.056Z,99.99
2023-02-21T03:49:37.063Z,99.99
2023-02-21T03:50:37.077Z,99.99
2023-02-21T03:51:37.077Z,99.99
2023-02-21T03:52:37.073Z,99.99
2023-02-21T03:53:39.835Z,99.99
2023-02-21T03:54:37.074Z,99.99
2023-02-21T03:55:37.106Z,99.99
2023-02-21T03:56:44.400Z,99.99
2023-02-21T03:57:37.092Z,99.99
2023-02-21T03:58:38.778Z,99.99
2023-02-21T03:59:37.202Z,99.99
2023-02-21T04:00:37.137Z,99.99
2023-02-21T04:01:37.091Z,99.99
2023-02-21T04:02:37.083Z,99.99
2023-02-21T04:03:37.110Z,99.99
2023-02-21T04:04:37.124Z,99.99
2023-02-21T04:05:37.159Z,99.99
2023-02-21T04:06:37.177Z,99.99
2023-02-21T04:07:37.098Z,99.99
2023-02-21T04:08:37.105Z,99.99
2023-02-21T04:09:37.125Z,99.99
2023-02-21T04:10:52.299Z,99.99
2023-02-21T04:11:37.091Z,99.99
2023-02-21T04:12:37.157Z,99.99
2023-02-21T04:13:37.099Z,99.99
2023-02-21T04:14:37.176Z,99.99
2023-02-21T04:15:37.112Z,99.99
2023-02-21T04:16:37.232Z,99.99
2023-02-21T04:17:37.100Z,99.99
2023-02-21T04:18:39.867Z,99.99
2023-02-21T04:19:37.354Z,99.99
2023-02-21T04:20:39.878Z,99.99
2023-02-21T04:21:37.107Z,99.99
2023-02-21T04:22:37.125Z,99.99
2023-02-21T04:23:37.172Z,99.99
2023-02-21T04:24:37.127Z,99.99
2023-02-21T04:25:37.417Z,99.99
2023-02-21T04:26:37.369Z,99.99
2023-02-21T04:27:37.170Z,99.99
2023-02-21T04:28:37.157Z,99.99
2023-02-21T04:29:37.130Z,99.99
2023-02-21T04:30:37.498Z,99.99
2023-02-21T04:31:40.528Z,99.99
2023-02-21T04:32:37.208Z,99.99
2023-02-21T04:33:37.130Z,99.99
2023-02-21T04:34:37.145Z,99.99
2023-02-21T04:35:37.146Z,99.99
2023-02-21T04:36:37.140Z,99.99
2023-02-21T04:37:37.157Z,99.99
2023-02-21T04:38:37.220Z,99.99
2023-02-21T04:39:37.138Z,99.99
2023-02-21T04:40:37.164Z,99.99
2023-02-21T04:41:37.239Z,99.99
2023-02-21T04:42:40.017Z,99.99
2023-02-21T04:43:37.170Z,99.99
2023-02-21T04:44:37.183Z,99.99
2023-02-21T04:45:37.223Z,99.99
2023-02-21T04:46:37.165Z,99.99
2023-02-21T04:47:37.153Z,99.99
2023-02-21T04:48:37.151Z,99.99
2023-02-21T04:49:37.179Z,99.99
2023-02-21T04:50:37.149Z,99.99
2023-02-21T04:51:37.152Z,99.99
2023-02-21T04:52:37.156Z,99.99
2023-02-21T04:53:37.160Z,99.99
2023-02-21T04:54:37.168Z,99.99
2023-02-21T04:55:37.206Z,99.99
2023-02-21T04:56:37.305Z,99.99
2023-02-21T04:57:37.188Z,99.99
2023-02-21T04:58:47.462Z,99.99
2023-02-21T04:59:37.156Z,99.99
2023-02-21T05:00:37.176Z,99.99
2023-02-21T05:01:37.329Z,99.99
2023-02-21T05:02:37.199Z,99.99
2023-02-21T05:03:37.215Z,99.99
2023-02-21T05:04:37.369Z,99.99
2023-02-21T05:05:37.171Z,99.99
2023-02-21T05:06:37.226Z,99.99
2023-02-21T05:07:37.168Z,99.99
2023-02-21T05:08:37.175Z,99.99
2023-02-21T05:09:37.169Z,99.99
2023-02-21T05:10:47.695Z,99.99
2023-02-21T05:11:37.213Z,99.99
2023-02-21T05:12:37.188Z,99.99
2023-02-21T05:13:37.198Z,99.99
2023-02-21T05:14:37.165Z,99.99
2023-02-21T05:15:37.230Z,99.99
2023-02-21T05:16:37.270Z,99.99
2023-02-21T05:17:37.191Z,99.99
2023-02-21T05:18:37.203Z,99.99
2023-02-21T05:19:37.177Z,99.99
2023-02-21T05:20:37.230Z,99.99
2023-02-21T05:21:37.173Z,99.99
2023-02-21T05:22:37.251Z,99.99
2023-02-21T05:23:37.210Z,99.99
2023-02-21T05:24:37.195Z,99.99
2023-02-21T05:25:40.849Z,99.99
2023-02-21T05:26:37.210Z,99.99
2023-02-21T05:27:37.285Z,99.99
2023-02-21T05:28:37.212Z,99.99
2023-02-21T05:29:37.225Z,99.99
2023-02-21T05:30:38.659Z,99.99
2023-02-21T05:31:37.458Z,99.99
2023-02-21T05:32:37.340Z,99.99
2023-02-21T05:33:37.229Z,99.99
2023-02-21T05:34:37.233Z,99.99
2023-02-21T05:35:37.232Z,99.99
2023-02-21T05:36:37.364Z,99.99
2023-02-21T05:37:37.217Z,99.99
2023-02-21T05:38:37.239Z,99.99
2023-02-21T05:39:37.324Z,99.99
2023-02-21T05:40:37.223Z,99.99
2023-02-21T05:41:37.305Z,99.99
2023-02-21T05:42:37.222Z,99.99
2023-02-21T05:43:37.213Z,99.99
2023-02-21T05:44:37.235Z,99.99
2023-02-21T05:45:37.234Z,99.99
2023-02-21T05:46:37.264Z,99.99
2023-02-21T05:47:40.139Z,99.99
2023-02-21T05:48:37.234Z,99.99
2023-02-21T05:49:37.220Z,99.99
2023-02-21T05:50:37.240Z,99.99
2023-02-21T05:51:37.232Z,99.99
2023-02-21T05:52:37.230Z,99.99
2023-02-21T05:53:37.208Z,99.99
2023-02-21T05:54:37.241Z,99.99
2023-02-21T05:55:37.231Z,99.99
2023-02-21T05:56:37.235Z,99.99
2023-02-21T05:57:37.226Z,99.99
2023-02-21T05:58:40.354Z,99.99
2023-02-21T05:59:37.229Z,99.99
2023-02-21T06:00:37.235Z,99.99
2023-02-21T06:01:37.271Z,99.99
2023-02-21T06:02:37.334Z,99.99
2023-02-21T06:03:37.355Z,99.99
2023-02-21T06:04:37.279Z,99.99
2023-02-21T06:05:37.224Z,99.99
2023-02-21T06:06:37.236Z,99.99
2023-02-21T06:07:37.236Z,99.99
2023-02-21T06:08:37.501Z,99.99
2023-02-21T06:09:40.032Z,99.99
2023-02-21T06:10:37.320Z,99.99
2023-02-21T06:11:37.257Z,99.99
2023-02-21T06:12:37.239Z,99.99
2023-02-21T06:13:37.231Z,99.99
2023-02-21T06:14:37.291Z,99.99
2023-02-21T06:15:37.288Z,99.99
2023-02-21T06:16:37.276Z,99.99
2023-02-21T06:17:37.257Z,99.99
2023-02-21T06:18:37.302Z,99.99
2023-02-21T06:19:37.266Z,99.99
2023-02-21T06:20:40.307Z,99.99
2023-02-21T06:21:37.260Z,99.99
2023-02-21T06:22:37.275Z,99.99
2023-02-21T06:23:37.348Z,99.99
2023-02-21T06:24:37.263Z,99.99
2023-02-21T06:25:37.300Z,99.99
2023-02-21T06:26:37.270Z,99.99
2023-02-21T06:27:37.277Z,99.99
2023-02-21T06:28:37.270Z,99.99
2023-02-21T06:29:37.280Z,99.99
2023-02-21T06:30:38.427Z,99.99
2023-02-21T06:31:40.745Z,99.99
2023-02-21T06:32:37.272Z,99.99
2023-02-21T06:33:37.422Z,99.99
2023-02-21T06:34:37.292Z,99.99
2023-02-21T06:35:37.279Z,99.99
2023-02-21T06:36:37.333Z,99.99
2023-02-21T06:37:37.282Z,99.99
2023-02-21T06:38:37.290Z,99.99
2023-02-21T06:39:37.280Z,99.99
2023-02-21T06:40:37.332Z,99.99
2023-02-21T06:41:37.225Z,99.99
2023-02-21T06:42:37.327Z,99.99
2023-02-21T06:43:38.081Z,99.99
2023-02-21T06:44:37.278Z,99.99
2023-02-21T06:45:37.413Z,99.99
2023-02-21T06:46:37.495Z,99.99
2023-02-21T06:47:40.401Z,99.99
2023-02-21T06:48:37.326Z,99.99
2023-02-21T06:49:37.337Z,99.99
2023-02-21T06:50:37.370Z,99.99
2023-02-21T06:51:37.514Z,99.99
2023-02-21T06:52:37.344Z,99.99
2023-02-21T06:53:37.294Z,99.99
2023-02-21T06:54:37.336Z,99.99
2023-02-21T06:55:37.322Z,99.99
2023-02-21T06:56:37.342Z,99.99
2023-02-21T06:57:37.330Z,99.99
2023-02-21T06:58:40.083Z,99.99
2023-02-21T06:59:37.340Z,99.99
2023-02-21T07:00:37.309Z,99.99
2023-02-21T07:01:37.516Z,99.99
2023-02-21T07:02:37.340Z,99.99
2023-02-21T07:03:37.355Z,99.99
2023-02-21T07:04:37.427Z,99.99
2023-02-21T07:05:37.360Z,99.99
2023-02-21T07:06:37.391Z,99.99
2023-02-21T07:07:37.369Z,99.99
2023-02-21T07:08:37.466Z,99.99
2023-02-21T07:09:40.355Z,99.99
2023-02-21T07:10:37.431Z,99.99
2023-02-21T07:11:37.381Z,99.99
2023-02-21T07:12:37.341Z,99.99
2023-02-21T07:13:37.341Z,99.99
2023-02-21T07:14:37.336Z,99.99
2023-02-21T07:15:37.407Z,99.99
2023-02-21T07:16:37.373Z,99.99
2023-02-21T07:17:37.376Z,99.99
2023-02-21T07:18:37.360Z,99.99
2023-02-21T07:19:37.385Z,99.99
2023-02-21T07:21:40.578Z,99.99
2023-02-21T07:22:37.351Z,99.99
2023-02-21T07:23:37.345Z,99.99
2023-02-21T07:24:38.964Z,99.99
2023-02-21T07:25:37.586Z,99.99
2023-02-21T07:26:37.410Z,99.99
2023-02-21T07:27:37.332Z,99.99
2023-02-21T07:28:37.400Z,99.99
2023-02-21T07:29:37.357Z,99.99
2023-02-21T07:30:37.593Z,99.99
2023-02-21T07:31:37.668Z,99.99
2023-02-21T07:32:37.400Z,99.99
2023-02-21T07:33:37.391Z,99.99
2023-02-21T07:34:37.383Z,99.99
2023-02-21T07:35:37.635Z,99.99
2023-02-21T07:36:39.955Z,99.99
2023-02-21T07:37:37.423Z,99.99
2023-02-21T07:38:37.389Z,99.99
2023-02-21T07:39:37.522Z,99.99
2023-02-21T07:40:37.411Z,99.99
2023-02-21T07:41:37.507Z,99.99
2023-02-21T07:42:37.390Z,99.99
2023-02-21T07:43:37.433Z,99.99
2023-02-21T07:44:37.396Z,99.99
2023-02-21T07:45:37.400Z,99.99
2023-02-21T07:46:37.550Z,99.99
2023-02-21T07:47:37.470Z,99.99
2023-02-21T07:48:37.384Z,99.99
2023-02-21T07:49:37.377Z,99.99
2023-02-21T07:50:37.504Z,99.99
2023-02-21T07:51:37.470Z,99.99
2023-02-21T07:52:40.518Z,99.99
2023-02-21T07:53:37.484Z,99.99
2023-02-21T07:54:37.442Z,99.99
2023-02-21T07:55:37.430Z,99.99
2023-02-21T07:56:37.520Z,99.99
2023-02-21T07:57:37.513Z,99.99
2023-02-21T07:58:37.515Z,99.99
2023-02-21T07:59:37.452Z,99.99
2023-02-21T08:00:40.428Z,99.99
2023-02-21T08:01:37.606Z,99.99
2023-02-21T08:02:37.556Z,99.99
2023-02-21T08:03:40.575Z,99.99
2023-02-21T08:04:37.541Z,99.99
2023-02-21T08:05:37.428Z,99.99
2023-02-21T08:06:37.454Z,99.99
2023-02-21T08:07:37.434Z,99.99
2023-02-21T08:08:37.477Z,99.99
2023-02-21T08:09:37.455Z,99.99
2023-02-21T08:10:37.447Z,99.99
2023-02-21T08:11:37.459Z,99.99
2023-02-21T08:12:37.507Z,99.99
2023-02-21T08:13:37.695Z,99.99
2023-02-21T08:14:40.656Z,99.99
2023-02-21T08:15:37.529Z,99.99
2023-02-21T08:16:37.679Z,99.99
2023-02-21T08:17:37.634Z,99.99
2023-02-21T08:18:37.494Z,99.99
2023-02-21T08:19:37.622Z,99.99
2023-02-21T08:20:37.532Z,99.99
2023-02-21T08:21:37.666Z,99.99
2023-02-21T08:22:37.520Z,99.99
2023-02-21T08:23:37.450Z,99.99
2023-02-21T08:24:37.488Z,99.99
2023-02-21T08:25:40.216Z,99.99
2023-02-21T08:26:37.498Z,99.99
2023-02-21T08:27:37.451Z,99.99
2023-02-21T08:28:37.511Z,99.99
2023-02-21T08:29:37.488Z,99.99
2023-02-21T08:30:37.606Z,99.99
2023-02-21T08:31:37.627Z,99.99
2023-02-21T08:32:37.463Z,99.99
2023-02-21T08:33:37.483Z,99.99
2023-02-21T08:34:37.488Z,99.99
2023-02-21T08:35:37.549Z,99.99
2023-02-21T08:36:40.781Z,99.99
2023-02-21T08:37:37.546Z,99.99
2023-02-21T08:38:37.482Z,99.99
2023-02-21T08:39:37.480Z,99.99
2023-02-21T08:40:37.545Z,99.99
2023-02-21T08:41:37.501Z,99.99
2023-02-21T08:42:37.486Z,99.99
2023-02-21T08:43:37.512Z,99.99
2023-02-21T08:44:37.513Z,99.99
2023-02-21T08:45:37.500Z,99.99
2023-02-21T08:46:38.040Z,99.99
2023-02-21T08:47:40.357Z,99.99
2023-02-21T08:48:37.516Z,99.99
2023-02-21T08:49:37.602Z,99.99
2023-02-21T08:50:37.511Z,99.99
2023-02-21T08:51:37.593Z,99.99
2023-02-21T08:52:37.501Z,99.99
2023-02-21T08:53:37.501Z,99.99
2023-02-21T08:54:37.492Z,99.99
2023-02-21T08:55:37.510Z,99.99
2023-02-21T08:56:37.555Z,99.99
2023-02-21T08:57:37.517Z,99.99
2023-02-21T08:58:43.912Z,99.99
2023-02-21T08:59:37.665Z,99.99
2023-02-21T09:00:37.620Z,99.99
2023-02-21T09:01:37.656Z,99.99
2023-02-21T09:02:37.529Z,99.99
2023-02-21T09:03:37.613Z,99.99
2023-02-21T09:04:37.589Z,99.99
2023-02-21T09:05:37.543Z,99.99
2023-02-21T09:06:37.620Z,99.99
2023-02-21T09:07:37.525Z,99.99
2023-02-21T09:08:37.588Z,99.99
2023-02-21T09:09:37.554Z,99.99
2023-02-21T09:10:37.682Z,99.99
2023-02-21T09:11:37.586Z,99.99
2023-02-21T09:12:37.682Z,99.99
2023-02-21T09:13:37.561Z,99.99
2023-02-21T09:14:40.626Z,99.99
2023-02-21T09:15:37.536Z,99.99
2023-02-21T09:16:37.772Z,99.99
2023-02-21T09:17:37.541Z,99.99
2023-02-21T09:18:37.660Z,99.99
2023-02-21T09:19:37.590Z,99.99
2023-02-21T09:20:37.637Z,99.99
2023-02-21T09:21:37.628Z,99.99
2023-02-21T09:22:37.559Z,99.99
2023-02-21T09:23:37.553Z,99.99
2023-02-21T09:24:37.551Z,99.99
2023-02-21T09:25:40.671Z,99.99
2023-02-21T09:26:37.579Z,99.99
2023-02-21T09:27:37.687Z,99.99
2023-02-21T09:28:37.608Z,99.99
2023-02-21T09:29:48.222Z,99.99
2023-02-21T09:30:37.748Z,99.99
2023-02-21T09:31:37.624Z,99.99
2023-02-21T09:32:37.651Z,99.99
2023-02-21T09:33:37.574Z,99.99
2023-02-21T09:34:37.614Z,99.99
2023-02-21T09:35:37.586Z,99.99
2023-02-21T09:36:39.010Z,99.99
2023-02-21T09:37:37.592Z,99.99
2023-02-21T09:38:37.667Z,99.99
2023-02-21T09:39:37.580Z,99.99
2023-02-21T09:40:37.612Z,99.99
2023-02-21T09:41:37.610Z,99.99
2023-02-21T09:42:37.580Z,99.99
2023-02-21T09:43:37.592Z,99.99
2023-02-21T09:44:37.691Z,99.99
2023-02-21T09:45:37.644Z,99.99
2023-02-21T09:46:37.694Z,99.99
2023-02-21T09:47:37.625Z,99.99
2023-02-21T09:48:37.607Z,99.99
2023-02-21T09:49:37.625Z,99.99
2023-02-21T09:50:37.649Z,99.99
2023-02-21T09:51:37.711Z,99.99
2023-02-21T09:52:37.606Z,99.99
2023-02-21T09:53:37.662Z,99.99
2023-02-21T09:54:37.609Z,99.99
2023-02-21T09:55:37.642Z,99.99
2023-02-21T09:56:37.627Z,99.99
2023-02-21T09:57:37.708Z,99.99
2023-02-21T09:58:37.696Z,99.99
2023-02-21T09:59:37.672Z,99.99
2023-02-21T10:00:37.667Z,99.99
2023-02-21T10:01:37.789Z,99.99
2023-02-21T10:02:37.612Z,99.99
2023-02-21T10:03:37.629Z,99.99
2023-02-21T10:04:41.249Z,99.99
2023-02-21T10:05:37.830Z,99.99
2023-02-21T10:06:37.623Z,99.99
2023-02-21T10:07:37.651Z,99.99
2023-02-21T10:08:37.621Z,99.99
2023-02-21T10:09:37.655Z,99.99
2023-02-21T10:10:37.643Z,99.99
2023-02-21T10:11:37.649Z,99.99
2023-02-21T10:12:37.637Z,99.99
2023-02-21T10:13:37.636Z,99.99
2023-02-21T10:14:37.633Z,99.99
2023-02-21T10:15:37.686Z,99.99
2023-02-21T10:16:37.877Z,99.99
2023-02-21T10:17:37.652Z,99.99
2023-02-21T10:18:37.682Z,99.99
2023-02-21T10:19:40.450Z,99.99
2023-02-21T10:20:37.668Z,99.99
2023-02-21T10:21:37.702Z,99.99
2023-02-21T10:22:37.673Z,99.99
2023-02-21T10:23:37.688Z,99.99
2023-02-21T10:24:37.691Z,99.99
2023-02-21T10:25:37.665Z,99.99
2023-02-21T10:26:37.663Z,99.99
2023-02-21T10:27:37.740Z,99.99
2023-02-21T10:28:37.673Z,99.99
2023-02-21T10:29:37.910Z,99.99
2023-02-21T10:30:40.682Z,99.99
2023-02-21T10:31:37.990Z,99.99
2023-02-21T10:32:37.726Z,99.99
2023-02-21T10:33:37.672Z,99.99
2023-02-21T10:34:37.697Z,99.99
2023-02-21T10:35:37.703Z,99.99
2023-02-21T10:36:37.700Z,99.99
2023-02-21T10:37:37.797Z,99.99
2023-02-21T10:38:37.696Z,99.99
2023-02-21T10:39:37.693Z,99.99
2023-02-21T10:40:37.698Z,99.99
2023-02-21T10:41:40.631Z,99.99
2023-02-21T10:42:37.787Z,99.99
2023-02-21T10:43:40.460Z,99.99
2023-02-21T10:44:37.733Z,99.99
2023-02-21T10:45:37.821Z,99.99
2023-02-21T10:46:37.726Z,99.99
2023-02-21T10:47:37.703Z,99.99
2023-02-21T10:48:37.721Z,99.99
2023-02-21T10:49:37.713Z,99.99
2023-02-21T10:50:37.698Z,99.99
2023-02-21T10:51:37.716Z,99.99
2023-02-21T10:52:40.738Z,99.99
2023-02-21T10:53:40.821Z,99.99
2023-02-21T10:54:37.891Z,99.99
2023-02-21T10:55:37.719Z,99.99
2023-02-21T10:56:37.706Z,99.99
2023-02-21T10:57:37.687Z,99.99
2023-02-21T10:58:37.724Z,99.99
2023-02-21T10:59:37.721Z,99.99
2023-02-21T11:00:37.727Z,99.99
2023-02-21T11:01:37.916Z,99.99
2023-02-21T11:02:37.868Z,99.99
2023-02-21T11:03:40.518Z,99.99
2023-02-21T11:04:38.400Z,99.99
2023-02-21T11:05:37.754Z,99.99
2023-02-21T11:06:37.752Z,99.99
2023-02-21T11:07:37.750Z,99.99
2023-02-21T11:08:37.745Z,99.99
2023-02-21T11:09:37.719Z,99.99
2023-02-21T11:10:37.739Z,99.99
2023-02-21T11:11:39.791Z,99.99
2023-02-21T11:12:37.729Z,99.99
2023-02-21T11:13:37.745Z,99.99
2023-02-21T11:14:40.509Z,99.99
2023-02-21T11:15:37.793Z,99.99
2023-02-21T11:16:37.737Z,99.99
2023-02-21T11:17:37.814Z,99.99
2023-02-21T11:18:37.746Z,99.99
2023-02-21T11:19:37.790Z,99.99
2023-02-21T11:20:37.760Z,99.99
2023-02-21T11:21:37.751Z,99.99
2023-02-21T11:22:37.969Z,99.99
2023-02-21T11:23:37.778Z,99.99
2023-02-21T11:24:40.812Z,99.99
2023-02-21T11:25:40.850Z,99.99
2023-02-21T11:26:37.748Z,99.99
2023-02-21T11:27:37.786Z,99.99
2023-02-21T11:28:37.766Z,99.99
2023-02-21T11:29:37.741Z,99.99
2023-02-21T11:30:37.900Z,99.99
2023-02-21T11:31:38.017Z,99.99
2023-02-21T11:32:37.767Z,99.99
2023-02-21T11:33:37.793Z,99.99
2023-02-21T11:34:37.774Z,99.99
2023-02-21T11:35:37.799Z,99.99
2023-02-21T11:36:37.760Z,99.99
2023-02-21T11:37:37.770Z,99.99
2023-02-21T11:38:37.777Z,99.99
2023-02-21T11:39:37.823Z,99.99
2023-02-21T11:40:37.856Z,99.99
2023-02-21T11:41:40.840Z,99.99
2023-02-21T11:42:37.781Z,99.99
2023-02-21T11:43:37.791Z,99.99
2023-02-21T11:44:37.871Z,99.99
2023-02-21T11:45:37.783Z,99.99
2023-02-21T11:46:37.779Z,99.99
2023-02-21T11:47:37.945Z,99.99
2023-02-21T11:48:37.807Z,99.99
2023-02-21T11:49:37.817Z,99.99
2023-02-21T11:50:37.796Z,99.99
2023-02-21T11:51:37.870Z,99.99
2023-02-21T11:52:40.849Z,99.99
2023-02-21T11:53:37.793Z,99.99
2023-02-21T11:54:37.792Z,99.99
2023-02-21T11:55:37.843Z,99.99
2023-02-21T11:56:37.807Z,99.99
2023-02-21T11:57:37.850Z,99.99
2023-02-21T11:58:37.810Z,99.99
2023-02-21T11:59:37.813Z,99.99
2023-02-21T12:00:39.857Z,99.99
2023-02-21T12:01:37.830Z,99.99
2023-02-21T12:02:37.910Z,99.99
2023-02-21T12:03:40.642Z,99.99
2023-02-21T12:04:38.828Z,99.99
2023-02-21T12:05:37.924Z,99.99
2023-02-21T12:06:37.827Z,99.99
2023-02-21T12:07:37.866Z,99.99
2023-02-21T12:08:37.857Z,99.99
2023-02-21T12:09:37.860Z,99.99
2023-02-21T12:10:37.850Z,99.99
2023-02-21T12:11:37.855Z,99.99
2023-02-21T12:12:37.902Z,99.99
2023-02-21T12:13:37.864Z,99.99
2023-02-21T12:14:37.856Z,99.99
2023-02-21T12:15:38.015Z,99.99
2023-02-21T12:16:37.918Z,99.99
2023-02-21T12:17:37.862Z,99.99
2023-02-21T12:18:37.878Z,99.99
2023-02-21T12:19:37.875Z,99.99
2023-02-21T12:20:37.873Z,99.99
2023-02-21T12:21:37.912Z,99.99
2023-02-21T12:22:37.872Z,99.99
2023-02-21T12:23:37.871Z,99.99
2023-02-21T12:24:38.885Z,99.4
2023-02-21T12:25:37.861Z,99.58
2023-02-21T12:26:37.848Z,99.68
2023-02-21T12:27:37.920Z,99.4
2023-02-21T12:28:37.862Z,99.2
2023-02-21T12:29:37.961Z,99.4
2023-02-21T12:30:37.914Z,98.39
2023-02-21T12:31:38.195Z,98.63
2023-02-21T12:32:37.900Z,99.06
2023-02-21T12:33:37.870Z,99.15
2023-02-21T12:34:37.857Z,99.35
2023-02-21T12:35:38.014Z,99.15
2023-02-21T12:36:37.887Z,98.48
2023-02-21T12:37:37.904Z,98.1
2023-02-21T12:38:40.109Z,97.52
2023-02-21T12:39:38.144Z,97.71
2023-02-21T12:40:37.872Z,98.48
2023-02-21T12:41:37.906Z,98.63
2023-02-21T12:42:37.908Z,98.58
2023-02-21T12:43:37.914Z,98.39
2023-02-21T12:44:37.912Z,98.39
2023-02-21T12:45:40.909Z,98.1
2023-02-21T12:46:40.843Z,98.96
2023-02-21T12:47:37.916Z,98.39
2023-02-21T12:48:37.885Z,97.09
2023-02-21T12:49:37.916Z,96.9
2023-02-21T12:50:37.919Z,96.8
2023-02-21T12:51:37.934Z,96.94
2023-02-21T12:52:37.953Z,96.8
2023-02-21T12:53:37.982Z,97.19